Alorton, Illinois
Current Conditions -  °F | °C
As of 3:02 PM on Saturday 22 Nov 2014 (Local Time) from KCPS Reporting Station
Light Rain Light Rain  
Wind Chill: 13°   Ceiling: 3900
Heat Index: 13°   Visibility: 9mi
Dew Point: 11°   Wind: 5mph
Humidity: 86%   Direction: 200°SSW
Pressure: 29.99"   Gusts: NA
Location:  38.5841°N, 90.126°W
Report Text: KCPS 222102Z 20004KT 9SM -RA FEW028 OVC039 13/11 A2999 RMK AO2 P0000 T01280106
Loading
Personal Weather Stations






























Interactive Weather Map New forecast layout! Learn more

10-Day Weather Forecast

Advertisements
Track Severe Weather on mobile